createdAt,value
2019-04-18T00:01:17.123Z,10.40
2019-04-18T00:03:51.533Z,10.44
2019-04-18T00:06:18.495Z,10.47
2019-04-18T00:08:45.243Z,10.57
2019-04-18T00:11:12.004Z,10.64
2019-04-18T00:13:38.703Z,10.60
2019-04-18T00:16:06.045Z,10.65
2019-04-18T00:18:32.163Z,10.73
2019-04-18T00:20:58.882Z,10.62
2019-04-18T00:23:25.991Z,10.50
2019-04-18T00:25:52.354Z,10.55
2019-04-18T00:28:21.423Z,10.44
2019-04-18T00:30:45.855Z,10.34
2019-04-18T00:33:14.814Z,10.16
2019-04-18T00:35:41.616Z,9.90
2019-04-18T00:38:06.373Z,9.89
2019-04-18T00:40:32.799Z,9.94
2019-04-18T00:42:59.543Z,9.95
2019-04-18T00:45:26.304Z,10.00
2019-04-18T00:47:54.560Z,10.06
2019-04-18T00:50:19.810Z,10.11
2019-04-18T00:52:50.023Z,10.17
2019-04-18T00:55:13.285Z,10.17
2019-04-18T00:57:40.019Z,10.06
2019-04-18T01:00:06.944Z,10.11
2019-04-18T01:02:33.661Z,9.95
2019-04-18T01:05:03.726Z,9.81
2019-04-18T01:07:27.245Z,9.77
2019-04-18T01:09:53.995Z,9.62
2019-04-18T01:12:20.723Z,9.57
2019-04-18T01:14:49.312Z,9.47
2019-04-18T01:17:14.210Z,9.46
2019-04-18T01:19:40.967Z,9.43
2019-04-18T01:22:08.364Z,9.47
2019-04-18T01:24:34.430Z,9.41
2019-04-18T01:27:01.471Z,9.30
2019-04-18T01:29:27.931Z,9.39
2019-04-18T01:31:54.654Z,9.42
2019-04-18T01:34:21.410Z,9.43
2019-04-18T01:36:48.133Z,9.47
2019-04-18T01:39:16.826Z,9.52
2019-04-18T01:41:48.102Z,9.55
2019-04-18T01:44:37.406Z,9.47
2019-04-18T01:47:04.140Z,9.65
2019-04-18T01:49:30.913Z,9.56
2019-04-18T01:51:57.654Z,9.51
2019-04-18T01:54:24.397Z,9.39
2019-04-18T01:56:55.585Z,9.23
2019-04-18T01:59:17.899Z,9.11
2019-04-18T02:01:44.613Z,8.88
2019-04-18T02:04:11.878Z,8.48
2019-04-18T02:06:41.188Z,8.32
2019-04-18T02:09:07.385Z,7.93
2019-04-18T02:11:34.875Z,7.78
2019-04-18T02:14:01.397Z,7.76
2019-04-18T02:16:27.635Z,7.85
2019-04-18T02:18:55.422Z,7.69
2019-04-18T02:21:21.094Z,7.71
2019-04-18T02:23:47.998Z,7.48
2019-04-18T02:26:16.399Z,7.24
2019-04-18T02:28:41.447Z,6.97
2019-04-18T02:31:08.192Z,6.83
2019-04-18T02:33:34.957Z,6.76
2019-04-18T02:36:02.872Z,6.89
2019-04-18T02:38:28.449Z,6.98
2019-04-18T02:40:55.250Z,7.16
2019-04-18T02:43:22.790Z,7.61
2019-04-18T02:45:48.726Z,7.78
2019-04-18T02:48:15.451Z,7.93
2019-04-18T02:50:43.190Z,8.13
2019-04-18T02:53:08.946Z,8.20
2019-04-18T02:55:39.818Z,8.40
2019-04-18T02:58:09.729Z,8.50
2019-04-18T03:00:41.655Z,8.44
2019-04-18T03:03:13.654Z,8.47
2019-04-18T03:05:40.414Z,8.63
2019-04-18T03:08:06.538Z,8.77
2019-04-18T03:10:33.298Z,8.47
2019-04-18T03:13:02.229Z,8.51
2019-04-18T03:15:26.764Z,8.44
2019-04-18T03:17:53.494Z,8.45
2019-04-18T03:20:20.719Z,8.48
2019-04-18T03:22:46.982Z,8.58
2019-04-18T03:25:13.714Z,8.58
2019-04-18T03:27:40.646Z,8.57
2019-04-18T03:30:07.579Z,8.82
2019-04-18T03:32:36.716Z,9.01
2019-04-18T03:35:00.923Z,9.09
2019-04-18T03:37:27.650Z,9.27
2019-04-18T03:39:54.392Z,9.19
2019-04-18T03:42:21.152Z,9.24
2019-04-18T03:45:00.650Z,9.28
2019-04-18T03:47:31.524Z,9.32
2019-04-18T03:49:57.718Z,9.36
2019-04-18T03:52:24.950Z,9.28
2019-04-18T03:54:51.202Z,9.27
2019-04-18T03:57:17.953Z,9.24
2019-04-18T03:59:48.099Z,9.34
2019-04-18T04:02:11.426Z,9.38
2019-04-18T04:04:38.162Z,9.27
2019-04-18T04:07:04.912Z,9.18
2019-04-18T04:09:33.930Z,9.23
2019-04-18T04:11:58.386Z,9.23
2019-04-18T04:14:25.114Z,9.15
2019-04-18T04:16:53.147Z,9.14
2019-04-18T04:19:21.231Z,9.08
2019-04-18T04:21:45.478Z,9.05
2019-04-18T04:24:12.209Z,9.15
2019-04-18T04:26:38.981Z,9.41
2019-04-18T04:29:05.720Z,9.25
2019-04-18T04:31:32.453Z,9.16
2019-04-18T04:33:59.174Z,9.13
2019-04-18T04:36:26.682Z,9.08
2019-04-18T04:38:53.010Z,9.02
2019-04-18T04:41:19.466Z,8.99
2019-04-18T04:43:46.186Z,8.89
2019-04-18T04:46:12.922Z,8.69
2019-04-18T04:48:41.906Z,8.59
2019-04-18T04:51:25.230Z,8.51
2019-04-18T04:53:57.179Z,8.48
2019-04-18T04:56:38.164Z,8.50
2019-04-18T04:59:05.429Z,8.60
2019-04-18T05:01:29.402Z,8.74
2019-04-18T05:03:59.654Z,8.71
2019-04-18T05:06:36.125Z,8.64
2019-04-18T05:08:53.126Z,8.58
2019-04-18T05:11:21.676Z,8.49
2019-04-18T05:13:46.809Z,8.53
2019-04-18T05:16:13.566Z,8.42
2019-04-18T05:18:40.322Z,8.29
2019-04-18T05:21:07.067Z,8.24
2019-04-18T05:23:33.811Z,8.38
2019-04-18T05:26:00.606Z,8.43
2019-04-18T05:28:27.362Z,8.57
2019-04-18T05:30:54.102Z,8.55
2019-04-18T05:33:21.770Z,8.70
2019-04-18T05:35:48.520Z,8.77
2019-04-18T05:38:18.289Z,9.00
2019-04-18T05:40:41.988Z,9.04
2019-04-18T05:43:08.701Z,9.21
2019-04-18T05:45:35.447Z,9.22
2019-04-18T05:48:10.238Z,9.33
2019-04-18T05:50:45.812Z,9.35
2019-04-18T05:53:23.483Z,9.50
2019-04-18T05:55:54.483Z,9.61
2019-04-18T05:58:19.766Z,9.79
2019-04-18T06:01:08.270Z,9.94
2019-04-18T06:03:42.394Z,10.15
2019-04-18T06:06:17.609Z,10.33
2019-04-18T06:08:43.542Z,10.51
2019-04-18T06:11:14.571Z,10.54
2019-04-18T06:13:43.994Z,10.66
2019-04-18T06:16:16.574Z,10.80
2019-04-18T06:18:48.126Z,10.84
2019-04-18T06:21:20.102Z,11.02
2019-04-18T06:23:46.834Z,11.27
2019-04-18T06:26:22.198Z,11.32
2019-04-18T06:28:54.030Z,11.58
2019-04-18T06:31:29.710Z,11.64
2019-04-18T06:33:56.554Z,11.82
2019-04-18T06:36:28.693Z,11.98
2019-04-18T06:38:51.942Z,12.08
2019-04-18T06:41:16.782Z,12.27
2019-04-18T06:43:43.497Z,12.42
2019-04-18T06:46:11.875Z,12.58
2019-04-18T06:48:36.969Z,12.89
2019-04-18T06:51:06.657Z,13.04
2019-04-18T06:53:30.430Z,13.01
2019-04-18T06:55:57.178Z,12.93
2019-04-18T06:58:34.721Z,13.08
2019-04-18T07:00:50.646Z,13.22
2019-04-18T07:03:20.908Z,13.49
2019-04-18T07:05:44.119Z,13.24
2019-04-18T07:08:16.486Z,13.39
2019-04-18T07:10:56.220Z,13.62
2019-04-18T07:13:21.375Z,13.64
2019-04-18T07:15:45.343Z,13.91
2019-04-18T07:18:12.063Z,14.02
2019-04-18T07:20:44.417Z,14.00
2019-04-18T07:23:12.002Z,13.92
2019-04-18T07:25:38.743Z,14.19
2019-04-18T07:28:05.468Z,14.37
2019-04-18T07:30:32.196Z,14.52
2019-04-18T07:32:58.917Z,14.48
2019-04-18T07:35:25.643Z,14.89
2019-04-18T07:37:52.452Z,14.80
2019-04-18T07:40:19.138Z,14.76
2019-04-18T07:42:45.865Z,14.98
2019-04-18T07:45:15.943Z,15.03
2019-04-18T07:47:43.838Z,15.10
2019-04-18T07:50:10.974Z,15.26
2019-04-18T07:52:37.713Z,15.11
2019-04-18T07:55:04.531Z,14.87
2019-04-18T07:57:31.278Z,15.00
2019-04-18T07:59:58.006Z,15.40
2019-04-18T08:02:24.747Z,15.33
2019-04-18T08:04:51.474Z,15.19
2019-04-18T08:07:18.223Z,14.96
2019-04-18T08:09:44.946Z,15.37
2019-04-18T08:12:12.394Z,15.63
2019-04-18T08:14:38.418Z,15.53
2019-04-18T08:17:05.158Z,15.61
2019-04-18T08:19:31.890Z,15.79
2019-04-18T08:21:58.643Z,15.92
2019-04-18T08:24:25.376Z,15.94
2019-04-18T08:26:52.110Z,16.06
2019-04-18T08:29:26.150Z,16.26
2019-04-18T08:31:45.794Z,16.28
2019-04-18T08:34:12.530Z,16.18
2019-04-18T08:36:39.362Z,16.35
2019-04-18T08:39:20.200Z,16.09
2019-04-18T08:42:00.869Z,16.33
2019-04-18T08:44:30.682Z,16.51
2019-04-18T08:46:58.466Z,16.55
2019-04-18T08:49:32.899Z,16.75
2019-04-18T08:52:03.342Z,16.99
2019-04-18T08:54:41.290Z,17.15
2019-04-18T08:57:13.157Z,17.00
2019-04-18T08:59:39.775Z,17.03
2019-04-18T09:02:07.016Z,16.97
2019-04-18T09:04:33.985Z,17.38
2019-04-18T09:07:00.489Z,17.19
2019-04-18T09:09:29.888Z,17.68
2019-04-18T09:12:01.169Z,17.79
2019-04-18T09:14:21.234Z,17.64
2019-04-18T09:16:47.882Z,17.48
2019-04-18T09:19:16.934Z,17.54
2019-04-18T09:21:41.042Z,17.80
2019-04-18T09:24:08.246Z,17.90
2019-04-18T09:26:36.980Z,17.57
2019-04-18T09:29:01.223Z,17.94
2019-04-18T09:31:27.940Z,18.03
2019-04-18T09:33:55.949Z,17.86
2019-04-18T09:36:21.894Z,17.92
2019-04-18T09:38:48.173Z,18.02
2019-04-18T09:41:14.894Z,18.28
2019-04-18T09:43:41.714Z,18.18
2019-04-18T09:46:10.963Z,18.16
2019-04-18T09:48:36.582Z,18.16
2019-04-18T09:51:03.310Z,18.05
2019-04-18T09:53:31.049Z,18.24
2019-04-18T09:55:56.787Z,18.46
2019-04-18T09:58:23.534Z,18.50
2019-04-18T10:00:50.270Z,18.35
2019-04-18T10:03:17.438Z,18.37
2019-04-18T10:05:43.749Z,18.43
2019-04-18T10:08:10.494Z,18.58
2019-04-18T10:10:37.226Z,19.33
2019-04-18T10:13:03.973Z,18.98
2019-04-18T10:15:30.711Z,18.83
2019-04-18T10:17:57.466Z,18.57
2019-04-18T10:20:24.875Z,18.83
2019-04-18T10:22:53.664Z,18.71
2019-04-18T10:25:26.965Z,18.83
2019-04-18T10:27:53.735Z,18.97
2019-04-18T10:30:31.499Z,19.10
2019-04-18T10:32:55.989Z,19.75
2019-04-18T10:35:22.738Z,19.49
2019-04-18T10:37:49.503Z,19.43
2019-04-18T10:40:16.267Z,19.34
2019-04-18T10:42:43.002Z,19.25
2019-04-18T10:45:09.753Z,19.59
2019-04-18T10:47:42.174Z,19.34
2019-04-18T10:50:09.554Z,19.82
2019-04-18T10:52:35.678Z,19.84
2019-04-18T10:55:02.433Z,19.67
2019-04-18T10:57:29.189Z,19.73
2019-04-18T10:59:55.939Z,20.07
2019-04-18T11:02:22.695Z,20.05
2019-04-18T11:04:49.443Z,19.90
2019-04-18T11:07:16.519Z,20.33
2019-04-18T11:09:42.983Z,20.38
2019-04-18T11:12:09.722Z,20.68
2019-04-18T11:14:36.478Z,20.28
2019-04-18T11:17:04.122Z,20.23
2019-04-18T11:19:29.947Z,20.66
2019-04-18T11:21:56.686Z,20.80
2019-04-18T11:24:23.450Z,20.46
2019-04-18T11:26:50.186Z,20.91
2019-04-18T11:29:17.057Z,20.81
2019-04-18T11:31:43.687Z,20.70
2019-04-18T11:34:10.422Z,20.71
2019-04-18T11:36:37.149Z,20.57
2019-04-18T11:39:06.213Z,20.77
2019-04-18T11:41:32.947Z,20.85
2019-04-18T11:43:59.802Z,20.86
2019-04-18T11:46:26.537Z,20.59
2019-04-18T11:48:53.286Z,20.65
2019-04-18T11:51:20.114Z,20.65
2019-04-18T11:53:47.006Z,20.91
2019-04-18T11:56:16.080Z,20.81
2019-04-18T11:58:41.698Z,20.97
2019-04-18T12:01:30.357Z,21.16
2019-04-18T12:03:57.345Z,21.14
2019-04-18T12:06:27.869Z,21.38
2019-04-18T12:08:54.657Z,21.60
2019-04-18T12:11:21.426Z,21.57
2019-04-18T12:13:48.233Z,21.21
2019-04-18T12:16:14.995Z,21.13
2019-04-18T12:18:41.739Z,20.99
2019-04-18T12:21:08.466Z,21.14
2019-04-18T12:23:35.198Z,21.50
2019-04-18T12:26:02.022Z,21.25
2019-04-18T12:28:28.812Z,21.45
2019-04-18T12:30:55.520Z,21.66
2019-04-18T12:33:22.667Z,21.72
2019-04-18T12:35:49.415Z,21.79
2019-04-18T12:38:16.151Z,21.84
2019-04-18T12:40:43.019Z,21.52
2019-04-18T12:43:09.758Z,21.62
2019-04-18T12:45:36.478Z,22.04
2019-04-18T12:48:03.667Z,21.51
2019-04-18T12:50:30.047Z,21.21
2019-04-18T12:52:56.885Z,21.62
2019-04-18T12:55:23.643Z,21.69
2019-04-18T12:57:50.390Z,21.76
2019-04-18T13:00:17.753Z,21.63
2019-04-18T13:02:43.971Z,21.77
2019-04-18T13:05:10.704Z,21.85
2019-04-18T13:07:42.179Z,22.06
2019-04-18T13:10:17.242Z,21.88
2019-04-18T13:12:49.148Z,22.40
2019-04-18T13:15:21.822Z,22.24
2019-04-18T13:17:51.160Z,22.03
2019-04-18T13:20:17.915Z,21.98
2019-04-18T13:22:44.634Z,21.96
2019-04-18T13:25:11.474Z,21.95
2019-04-18T13:27:38.178Z,22.03
2019-04-18T13:30:05.240Z,22.06
2019-04-18T13:32:32.106Z,22.21
2019-04-18T13:34:59.904Z,22.18
2019-04-18T13:37:25.642Z,21.90
2019-04-18T13:39:52.386Z,21.86
2019-04-18T13:42:19.137Z,21.94
2019-04-18T13:44:46.253Z,21.94
2019-04-18T13:47:12.652Z,22.33
2019-04-18T13:49:39.345Z,21.98
2019-04-18T13:52:07.390Z,21.90
2019-04-18T13:54:34.050Z,22.07
2019-04-18T13:57:00.979Z,22.01
2019-04-18T13:59:27.604Z,22.10
2019-04-18T14:01:54.354Z,22.22
2019-04-18T14:04:21.096Z,22.48
2019-04-18T14:06:47.853Z,22.42
2019-04-18T14:09:14.603Z,22.10
2019-04-18T14:11:41.380Z,22.59
2019-04-18T14:14:08.167Z,22.34
2019-04-18T14:16:34.932Z,22.46
2019-04-18T14:19:01.723Z,22.30
2019-04-18T14:21:28.509Z,22.28
2019-04-18T14:23:56.309Z,22.39
2019-04-18T14:26:22.066Z,22.38
2019-04-18T14:28:48.786Z,22.45
2019-04-18T14:31:15.552Z,22.80
2019-04-18T14:33:42.311Z,22.42
2019-04-18T14:36:09.113Z,22.35
2019-04-18T14:38:35.834Z,22.41
2019-04-18T14:41:02.591Z,22.34
2019-04-18T14:43:29.400Z,22.43
2019-04-18T14:45:56.158Z,22.51
2019-04-18T14:48:22.894Z,22.22
2019-04-18T14:50:49.707Z,22.18
2019-04-18T14:53:16.471Z,22.25
2019-04-18T14:55:43.198Z,22.34
2019-04-18T14:58:09.960Z,22.66
2019-04-18T15:00:43.653Z,22.73
2019-04-18T15:03:03.511Z,22.60
2019-04-18T15:05:30.235Z,22.43
2019-04-18T15:07:56.978Z,22.42
2019-04-18T15:10:23.715Z,22.45
2019-04-18T15:12:50.474Z,22.69
2019-04-18T15:15:17.193Z,22.63
2019-04-18T15:17:45.778Z,22.66
2019-04-18T15:20:12.501Z,22.63
2019-04-18T15:22:39.297Z,22.46
2019-04-18T15:25:06.345Z,22.40
2019-04-18T15:27:33.106Z,22.36
2019-04-18T15:30:02.307Z,22.37
2019-04-18T15:32:26.646Z,22.56
2019-04-18T15:34:53.810Z,22.45
2019-04-18T15:37:20.135Z,22.47
2019-04-18T15:39:46.854Z,22.31
2019-04-18T15:42:13.595Z,22.40
2019-04-18T15:44:40.470Z,22.41
2019-04-18T15:47:12.254Z,22.37
2019-04-18T15:49:39.025Z,22.37
2019-04-18T15:52:05.882Z,22.24
2019-04-18T15:54:32.617Z,22.24
2019-04-18T15:56:59.393Z,22.37
2019-04-18T15:59:26.000Z,22.46
2019-04-18T16:01:52.762Z,22.58
2019-04-18T16:04:19.495Z,22.40
2019-04-18T16:06:46.241Z,22.34
2019-04-18T16:09:12.985Z,22.39
2019-04-18T16:11:39.704Z,22.28
2019-04-18T16:14:07.443Z,22.33
2019-04-18T16:16:34.178Z,22.26
2019-04-18T16:19:00.966Z,22.32
2019-04-18T16:21:27.784Z,22.35
2019-04-18T16:23:54.536Z,22.38
2019-04-18T16:26:21.286Z,22.36
2019-04-18T16:28:48.232Z,22.42
2019-04-18T16:31:14.757Z,22.36
2019-04-18T16:33:41.516Z,22.44
2019-04-18T16:36:08.521Z,22.35
2019-04-18T16:38:34.980Z,22.53
2019-04-18T16:41:01.804Z,22.26
2019-04-18T16:43:28.542Z,22.28
2019-04-18T16:45:55.294Z,22.27
2019-04-18T16:48:22.130Z,22.06
2019-04-18T16:50:48.935Z,21.90
2019-04-18T16:53:15.603Z,21.87
2019-04-18T16:55:42.330Z,21.83
2019-04-18T16:58:09.074Z,21.75
2019-04-18T17:00:38.438Z,21.74
2019-04-18T17:03:05.194Z,21.76
2019-04-18T17:05:32.039Z,21.71
2019-04-18T17:07:58.775Z,21.57
2019-04-18T17:10:25.528Z,21.48
2019-04-18T17:12:52.291Z,21.45
2019-04-18T17:15:19.026Z,21.31
2019-04-18T17:17:45.782Z,21.37
2019-04-18T17:20:12.579Z,21.26
2019-04-18T17:22:39.337Z,21.13
2019-04-18T17:25:06.990Z,20.98
2019-04-18T17:27:33.726Z,20.95
2019-04-18T17:30:00.493Z,20.89
2019-04-18T17:32:27.205Z,20.84
2019-04-18T17:35:02.631Z,20.70
2019-04-18T17:37:36.968Z,20.68
2019-04-18T17:40:04.966Z,20.67
2019-04-18T17:42:14.581Z,20.54
2019-04-18T17:44:48.279Z,20.48
2019-04-18T17:47:16.822Z,20.49
2019-04-18T17:49:49.280Z,20.28
2019-04-18T17:52:25.882Z,20.25
2019-04-18T17:54:50.408Z,20.20
2019-04-18T17:57:08.881Z,20.12
2019-04-18T17:59:33.333Z,19.93
2019-04-18T18:02:07.527Z,19.84
2019-04-18T18:04:34.908Z,19.80
2019-04-18T18:06:58.381Z,19.72
2019-04-18T18:09:20.751Z,19.54
2019-04-18T18:11:53.195Z,19.50
2019-04-18T18:14:16.762Z,19.33
2019-04-18T18:16:40.345Z,19.12
2019-04-18T18:19:10.112Z,19.05
2019-04-18T18:21:40.901Z,18.91
2019-04-18T18:24:05.800Z,18.83
2019-04-18T18:26:29.723Z,18.59
2019-04-18T18:29:01.265Z,18.73
2019-04-18T18:31:28.535Z,18.55
2019-04-18T18:34:01.372Z,18.58
2019-04-18T18:36:27.427Z,18.34
2019-04-18T18:38:49.858Z,18.30
2019-04-18T18:41:17.035Z,18.22
2019-04-18T18:43:42.557Z,18.12
2019-04-18T18:46:09.349Z,17.96
2019-04-18T18:48:42.629Z,17.85
2019-04-18T18:51:03.825Z,17.77
2019-04-18T18:53:29.554Z,17.74
2019-04-18T18:55:57.283Z,17.70
2019-04-18T18:58:26.057Z,17.79
2019-04-18T19:00:51.195Z,17.92
2019-04-18T19:03:17.533Z,17.61
2019-04-18T19:05:56.024Z,17.60
2019-04-18T19:08:20.229Z,17.48
2019-04-18T19:13:35.975Z,17.33
2019-04-18T19:15:54.109Z,17.24
2019-04-18T19:17:58.247Z,17.18
2019-04-18T19:20:23.799Z,17.16
2019-04-18T19:22:50.545Z,17.07
2019-04-18T19:25:17.282Z,17.08
2019-04-18T19:27:49.405Z,16.99
2019-04-18T19:30:16.203Z,17.01
2019-04-18T19:32:41.741Z,17.17
2019-04-18T19:35:25.626Z,17.04
2019-04-18T19:37:54.118Z,16.89
2019-04-18T19:40:25.627Z,17.03
2019-04-18T19:42:29.775Z,16.77
2019-04-18T19:44:58.917Z,16.69
2019-04-18T19:47:20.716Z,16.63
2019-04-18T19:49:46.329Z,16.44
2019-04-18T19:52:16.765Z,16.17
2019-04-18T19:54:42.460Z,16.50
2019-04-18T19:57:06.634Z,16.19
2019-04-18T19:59:33.534Z,16.27
2019-04-18T20:02:00.618Z,16.24
2019-04-18T20:04:27.827Z,16.24
2019-04-18T20:07:09.928Z,16.16
2019-04-18T20:09:33.225Z,16.06
2019-04-18T20:11:59.158Z,15.91
2019-04-18T20:14:17.836Z,15.99
2019-04-18T20:16:41.508Z,15.88
2019-04-18T20:19:11.209Z,15.81
2019-04-18T20:21:35.447Z,15.79
2019-04-18T20:24:00.980Z,15.85
2019-04-18T20:26:33.512Z,15.88
2019-04-18T20:28:54.953Z,15.89
2019-04-18T20:31:24.181Z,15.88
2019-04-18T20:33:50.786Z,15.76
2019-04-18T20:39:08.064Z,15.85
2019-04-18T20:41:34.911Z,15.95
2019-04-18T20:43:43.456Z,15.94
2019-04-18T20:48:48.531Z,15.82
2019-04-18T20:51:04.698Z,15.66
2019-04-18T20:53:42.920Z,15.44
2019-04-18T20:55:57.102Z,15.28
2019-04-18T20:58:20.392Z,15.19
2019-04-18T21:00:42.322Z,15.25
2019-04-18T21:03:13.261Z,15.14
2019-04-18T21:05:40.372Z,15.22
2019-04-18T21:08:12.709Z,15.23
2019-04-18T21:10:37.754Z,15.20
2019-04-18T21:12:56.069Z,15.13
2019-04-18T21:15:22.807Z,15.07
2019-04-18T21:17:55.239Z,15.16
2019-04-18T21:20:16.294Z,15.12
2019-04-18T21:22:43.046Z,15.22
2019-04-18T21:25:10.172Z,15.17
2019-04-18T21:27:44.446Z,15.11
2019-04-18T21:30:04.456Z,14.90
2019-04-18T21:32:32.013Z,14.81
2019-04-18T21:35:01.442Z,14.66
2019-04-18T21:37:34.645Z,14.52
2019-04-18T21:39:50.618Z,14.45
2019-04-18T21:42:22.036Z,14.44
2019-04-18T21:44:48.201Z,14.40
2019-04-18T21:47:12.253Z,14.58
2019-04-18T21:49:41.629Z,14.39
2019-04-18T21:52:04.574Z,14.33
2019-04-18T21:54:37.867Z,14.25
2019-04-18T21:56:59.331Z,14.20
2019-04-18T21:59:39.748Z,14.12
2019-04-18T22:01:51.499Z,14.05
2019-04-18T22:04:27.843Z,14.02
2019-04-18T22:06:50.188Z,14.03
2019-04-18T22:09:13.628Z,14.01
2019-04-18T22:11:39.900Z,13.95
2019-04-18T22:14:06.790Z,13.92
2019-04-18T22:16:33.494Z,14.00
2019-04-18T22:18:59.932Z,13.98
2019-04-18T22:21:26.658Z,14.08
2019-04-18T22:23:54.530Z,14.15
2019-04-18T22:26:24.587Z,14.23
2019-04-18T22:28:46.954Z,14.28
2019-04-18T22:31:17.807Z,14.31
2019-04-18T22:33:45.041Z,14.13
2019-04-18T22:36:07.676Z,14.05
2019-04-18T22:38:38.556Z,14.14
2019-04-18T22:41:01.968Z,14.11
2019-04-18T22:43:30.297Z,14.30
2019-04-18T22:45:54.371Z,14.12
2019-04-18T22:48:22.691Z,14.16
2019-04-18T22:50:48.569Z,14.12
2019-04-18T22:53:16.320Z,14.13
2019-04-18T22:55:41.108Z,14.13
2019-04-18T22:58:14.120Z,14.01
2019-04-18T23:00:35.947Z,13.95
2019-04-18T23:03:02.317Z,13.92
2019-04-18T23:05:28.599Z,14.04
2019-04-18T23:08:10.731Z,14.21
2019-04-18T23:10:26.640Z,13.98
2019-04-18T23:12:48.648Z,14.22
2019-04-18T23:15:19.969Z,13.93
2019-04-18T23:17:43.748Z,14.01
2019-04-18T23:20:08.614Z,14.00
2019-04-18T23:22:38.019Z,13.99
2019-04-18T23:25:02.046Z,13.93
2019-04-18T23:27:34.818Z,13.93
2019-04-18T23:29:56.421Z,13.93
2019-04-18T23:32:27.145Z,13.90
2019-04-18T23:34:49.730Z,13.87
2019-04-18T23:37:21.512Z,13.86
2019-04-18T23:39:52.250Z,13.99
2019-04-18T23:42:17.616Z,13.90
2019-04-18T23:44:41.650Z,13.84
2019-04-18T23:47:09.783Z,13.80
2019-04-18T23:49:35.126Z,13.56
2019-04-18T23:52:02.123Z,13.38
2019-04-18T23:54:31.014Z,13.34
2019-04-18T23:56:55.591Z,13.33
2019-04-18T23:59:28.573Z,13.33
